createdAt,value
2019-05-22T00:00:27.560Z,13.1
2019-05-22T00:01:34.762Z,13.1
2019-05-22T00:02:42.019Z,13
2019-05-22T00:03:49.233Z,13.1
2019-05-22T00:04:56.438Z,13.1
2019-05-22T00:06:03.440Z,13.1
2019-05-22T00:07:10.377Z,13.1
2019-05-22T00:08:17.941Z,13.1
2019-05-22T00:09:25.172Z,13.1
2019-05-22T00:10:32.363Z,13
2019-05-22T00:11:39.562Z,13
2019-05-22T00:12:47.818Z,13
2019-05-22T00:13:55.030Z,13
2019-05-22T00:15:03.879Z,13
2019-05-22T00:16:11.306Z,13
2019-05-22T00:17:18.503Z,13
2019-05-22T00:18:25.709Z,13
2019-05-22T00:19:32.918Z,13
2019-05-22T00:20:40.120Z,13
2019-05-22T00:21:47.359Z,13
2019-05-22T00:22:54.602Z,13
2019-05-22T00:24:01.523Z,13
2019-05-22T00:25:08.723Z,13
2019-05-22T00:26:15.962Z,13
2019-05-22T00:27:22.625Z,13
2019-05-22T00:28:29.823Z,13
2019-05-22T00:29:37.069Z,13
2019-05-22T00:30:44.313Z,13
2019-05-22T00:31:51.520Z,12.9
2019-05-22T00:32:58.794Z,12.9
2019-05-22T00:34:06.002Z,12.9
2019-05-22T00:35:13.210Z,12.9
2019-05-22T00:36:20.413Z,12.9
2019-05-22T00:37:27.631Z,12.9
2019-05-22T00:38:34.839Z,12.9
2019-05-22T00:39:42.300Z,12.9
2019-05-22T00:40:49.506Z,12.9
2019-05-22T00:41:56.722Z,12.9
2019-05-22T00:43:14.130Z,12.9
2019-05-22T00:44:21.621Z,12.9
2019-05-22T00:45:28.846Z,12.9
2019-05-22T00:46:36.106Z,12.9
2019-05-22T00:47:43.317Z,12.9
2019-05-22T00:48:50.524Z,12.9
2019-05-22T00:49:57.467Z,12.8
2019-05-22T00:51:04.704Z,12.9
2019-05-22T00:52:11.928Z,12.8
2019-05-22T00:53:18.586Z,12.8
2019-05-22T00:54:25.795Z,12.8
2019-05-22T00:55:32.722Z,12.8
2019-05-22T00:56:39.927Z,12.8
2019-05-22T00:57:47.129Z,12.8
2019-05-22T00:58:54.348Z,12.8
2019-05-22T01:00:01.546Z,12.8
2019-05-22T01:01:08.573Z,12.8
2019-05-22T01:02:15.778Z,12.8
2019-05-22T01:03:22.711Z,12.8
2019-05-22T01:04:29.922Z,12.8
2019-05-22T01:05:37.129Z,12.8
2019-05-22T01:06:44.333Z,12.8
2019-05-22T01:07:51.006Z,12.8
2019-05-22T01:08:57.947Z,12.8
2019-05-22T01:10:06.325Z,12.8
2019-05-22T01:11:14.303Z,12.8
2019-05-22T01:12:21.242Z,12.8
2019-05-22T01:13:28.449Z,12.8
2019-05-22T01:14:43.464Z,12.7
2019-05-22T01:15:50.396Z,12.7
2019-05-22T01:16:57.608Z,12.7
2019-05-22T01:18:04.537Z,12.7
2019-05-22T01:19:11.910Z,12.7
2019-05-22T01:20:19.114Z,12.7
2019-05-22T01:21:26.336Z,12.7
2019-05-22T01:22:32.986Z,12.7
2019-05-22T01:23:40.191Z,12.7
2019-05-22T01:24:47.399Z,12.7
2019-05-22T01:25:54.605Z,12.7
2019-05-22T01:27:01.812Z,12.7
2019-05-22T01:28:09.036Z,12.7
2019-05-22T01:29:16.239Z,12.7
2019-05-22T01:30:23.446Z,12.7
2019-05-22T01:31:30.378Z,12.7
2019-05-22T01:32:37.580Z,12.7
2019-05-22T01:33:44.810Z,12.7
2019-05-22T01:34:52.013Z,12.7
2019-05-22T01:35:59.223Z,12.6
2019-05-22T01:37:06.431Z,12.6
2019-05-22T01:38:13.364Z,12.6
2019-05-22T01:39:20.301Z,12.6
2019-05-22T01:40:27.505Z,12.6
2019-05-22T01:41:34.709Z,12.6
2019-05-22T01:42:41.912Z,12.6
2019-05-22T01:43:49.117Z,12.5
2019-05-22T01:45:06.894Z,12.6
2019-05-22T01:46:13.930Z,12.6
2019-05-22T01:47:21.140Z,12.6
2019-05-22T01:48:27.860Z,12.5
2019-05-22T01:49:35.085Z,12.5
2019-05-22T01:50:42.296Z,12.6
2019-05-22T01:51:49.215Z,12.5
2019-05-22T01:52:56.418Z,12.5
2019-05-22T01:54:03.625Z,12.5
2019-05-22T01:55:10.901Z,12.5
2019-05-22T01:56:18.159Z,12.5
2019-05-22T01:57:25.370Z,12.5
2019-05-22T01:58:32.572Z,12.5
2019-05-22T01:59:39.778Z,12.5
2019-05-22T02:00:46.706Z,12.5
2019-05-22T02:01:53.923Z,12.4
2019-05-22T02:03:00.859Z,12.4
2019-05-22T02:04:08.061Z,12.4
2019-05-22T02:05:15.270Z,12.5
2019-05-22T02:06:22.206Z,12.4
2019-05-22T02:07:29.137Z,12.4
2019-05-22T02:08:36.067Z,12.4
2019-05-22T02:09:42.995Z,12.5
2019-05-22T02:10:50.035Z,12.4
2019-05-22T02:11:57.253Z,12.4
2019-05-22T02:13:04.179Z,12.4
2019-05-22T02:14:11.382Z,12.4
2019-05-22T02:15:18.596Z,12.4
2019-05-22T02:16:25.530Z,12.4
2019-05-22T02:17:32.734Z,12.4
2019-05-22T02:18:39.950Z,12.4
2019-05-22T02:19:47.155Z,12.4
2019-05-22T02:20:54.487Z,12.4
2019-05-22T02:22:01.708Z,12.4
2019-05-22T02:23:08.988Z,12.4
2019-05-22T02:24:16.189Z,12.4
2019-05-22T02:25:23.397Z,12.4
2019-05-22T02:26:30.600Z,12.4
2019-05-22T02:27:37.813Z,12.4
2019-05-22T02:28:45.029Z,12.4
2019-05-22T02:29:52.229Z,12.4
2019-05-22T02:30:59.159Z,12.4
2019-05-22T02:32:06.098Z,12.3
2019-05-22T02:33:13.022Z,12.4
2019-05-22T02:34:20.365Z,12.3
2019-05-22T02:35:27.571Z,12.3
2019-05-22T02:36:34.811Z,12.3
2019-05-22T02:37:42.016Z,12.3
2019-05-22T02:38:49.218Z,12.3
2019-05-22T02:39:56.427Z,12.3
2019-05-22T02:41:03.629Z,12.3
2019-05-22T02:42:10.836Z,12.3
2019-05-22T02:43:18.129Z,12.3
2019-05-22T02:44:25.335Z,12.3
2019-05-22T02:45:32.368Z,12.3
2019-05-22T02:46:38.994Z,12.3
2019-05-22T02:47:46.201Z,12.3
2019-05-22T02:48:53.405Z,12.3
2019-05-22T02:50:00.620Z,12.3
2019-05-22T02:51:07.567Z,12.3
2019-05-22T02:52:14.505Z,12.2
2019-05-22T02:53:21.705Z,12.2
2019-05-22T02:54:28.908Z,12.3
2019-05-22T02:55:36.120Z,12.2
2019-05-22T02:56:43.325Z,12.2
2019-05-22T02:57:50.532Z,12.2
2019-05-22T02:58:57.737Z,12.2
2019-05-22T03:00:04.954Z,12.2
2019-05-22T03:01:12.166Z,12.2
2019-05-22T03:02:19.094Z,12.2
2019-05-22T03:03:26.028Z,12.2
2019-05-22T03:04:33.229Z,12.2
2019-05-22T03:05:40.173Z,12.2
2019-05-22T03:06:47.108Z,12.2
2019-05-22T03:07:54.042Z,12.2
2019-05-22T03:09:01.337Z,12.2
2019-05-22T03:10:08.304Z,12.2
2019-05-22T03:11:15.510Z,12.2
2019-05-22T03:12:22.714Z,12.2
2019-05-22T03:13:29.930Z,12.2
2019-05-22T03:14:37.133Z,12.2
2019-05-22T03:15:44.333Z,12.2
2019-05-22T03:16:51.537Z,12.2
2019-05-22T03:17:58.735Z,12.2
2019-05-22T03:19:09.747Z,12.2
2019-05-22T03:20:16.953Z,12.2
2019-05-22T03:21:23.883Z,12.2
2019-05-22T03:22:30.819Z,12.2
2019-05-22T03:23:38.026Z,12.2
2019-05-22T03:24:44.965Z,12.2
2019-05-22T03:25:51.897Z,12.2
2019-05-22T03:26:59.098Z,12.2
2019-05-22T03:28:06.298Z,12.2
2019-05-22T03:29:13.501Z,12.2
2019-05-22T03:30:20.800Z,12.2
2019-05-22T03:31:28.083Z,12.2
2019-05-22T03:32:35.299Z,12.2
2019-05-22T03:33:51.041Z,12.2
2019-05-22T03:34:58.264Z,12.2
2019-05-22T03:36:05.477Z,12.1
2019-05-22T03:37:12.689Z,12.1
2019-05-22T03:38:19.895Z,12.2
2019-05-22T03:39:27.366Z,12.1
2019-05-22T03:40:34.313Z,12.1
2019-05-22T03:41:41.508Z,12.1
2019-05-22T03:42:48.732Z,12.1
2019-05-22T03:43:55.940Z,12.2
2019-05-22T03:45:02.872Z,12.2
2019-05-22T03:46:10.090Z,12.2
2019-05-22T03:47:17.286Z,12.2
2019-05-22T03:48:24.497Z,12.2
2019-05-22T03:49:31.828Z,12.1
2019-05-22T03:50:39.031Z,12.1
2019-05-22T03:51:45.674Z,12.1
2019-05-22T03:52:52.877Z,12.1
2019-05-22T03:53:59.815Z,12.1
2019-05-22T03:55:07.020Z,12.1
2019-05-22T03:56:14.226Z,12.1
2019-05-22T03:57:21.453Z,12.1
2019-05-22T03:58:28.382Z,12.1
2019-05-22T03:59:35.591Z,12.1
2019-05-22T04:00:44.217Z,12.1
2019-05-22T04:01:51.419Z,12.1
2019-05-22T04:02:58.641Z,12.1
2019-05-22T04:04:05.847Z,12.1
2019-05-22T04:05:13.053Z,12.1
2019-05-22T04:06:20.255Z,12.1
2019-05-22T04:07:27.491Z,12
2019-05-22T04:08:34.709Z,12.1
2019-05-22T04:09:41.930Z,12.1
2019-05-22T04:10:49.156Z,12.1
2019-05-22T04:11:56.367Z,12.1
2019-05-22T04:13:03.292Z,12.1
2019-05-22T04:14:10.492Z,12.2
2019-05-22T04:15:17.707Z,12.1
2019-05-22T04:16:24.941Z,12.2
2019-05-22T04:17:32.140Z,12.2
2019-05-22T04:18:39.359Z,12.2
2019-05-22T04:19:51.892Z,12.2
2019-05-22T04:20:59.211Z,12.2
2019-05-22T04:22:06.416Z,12.2
2019-05-22T04:23:13.352Z,12.2
2019-05-22T04:24:20.575Z,12.2
2019-05-22T04:25:27.797Z,12.2
2019-05-22T04:26:34.715Z,12.2
2019-05-22T04:27:41.942Z,12.2
2019-05-22T04:28:49.156Z,12.2
2019-05-22T04:29:56.367Z,12.1
2019-05-22T04:31:03.311Z,12.2
2019-05-22T04:32:10.514Z,12.2
2019-05-22T04:33:17.718Z,12.2
2019-05-22T04:34:25.020Z,12.2
2019-05-22T04:35:32.243Z,12.2
2019-05-22T04:36:39.443Z,12.2
2019-05-22T04:37:46.644Z,12.2
2019-05-22T04:38:53.855Z,12.2
2019-05-22T04:40:01.058Z,12.2
2019-05-22T04:41:07.998Z,12.2
2019-05-22T04:42:15.202Z,12.2
2019-05-22T04:43:22.400Z,12.2
2019-05-22T04:44:29.619Z,12.2
2019-05-22T04:45:36.827Z,12.2
2019-05-22T04:46:43.769Z,12.3
2019-05-22T04:47:50.979Z,12.3
2019-05-22T04:48:58.191Z,12.2
2019-05-22T04:50:08.534Z,12.3
2019-05-22T04:51:15.744Z,12.3
2019-05-22T04:52:22.948Z,12.3
2019-05-22T04:53:29.884Z,12.3
2019-05-22T04:54:37.086Z,12.3
2019-05-22T04:55:44.297Z,12.3
2019-05-22T04:56:51.502Z,12.3
2019-05-22T04:57:58.711Z,12.3
2019-05-22T04:59:05.919Z,12.4
2019-05-22T05:00:13.141Z,12.4
2019-05-22T05:01:20.343Z,12.4
2019-05-22T05:02:27.544Z,12.4
2019-05-22T05:03:34.756Z,12.4
2019-05-22T05:04:41.962Z,12.4
2019-05-22T05:05:48.902Z,12.4
2019-05-22T05:06:55.843Z,12.4
2019-05-22T05:08:03.043Z,12.4
2019-05-22T05:09:09.978Z,12.4
2019-05-22T05:10:16.903Z,12.4
2019-05-22T05:11:23.832Z,12.4
2019-05-22T05:12:31.033Z,12.4
2019-05-22T05:13:38.243Z,12.4
2019-05-22T05:14:45.446Z,12.4
2019-05-22T05:15:52.652Z,12.4
2019-05-22T05:16:59.855Z,12.5
2019-05-22T05:18:06.793Z,12.5
2019-05-22T05:19:14.000Z,12.5
2019-05-22T05:20:23.366Z,12.5
2019-05-22T05:21:30.574Z,12.5
2019-05-22T05:22:37.822Z,12.5
2019-05-22T05:23:44.749Z,12.5
2019-05-22T05:24:55.122Z,12.5
2019-05-22T05:26:02.938Z,12.4
2019-05-22T05:27:10.142Z,12.4
2019-05-22T05:28:17.347Z,12.4
2019-05-22T05:29:24.554Z,12.3
2019-05-22T05:30:31.757Z,12.3
2019-05-22T05:31:38.697Z,12.3
2019-05-22T05:32:45.901Z,12.3
2019-05-22T05:33:52.836Z,12.3
2019-05-22T05:35:00.062Z,12.3
2019-05-22T05:36:07.264Z,12.3
2019-05-22T05:37:14.513Z,12.3
2019-05-22T05:38:21.718Z,12.4
2019-05-22T05:39:28.922Z,12.4
2019-05-22T05:40:36.380Z,12.4
2019-05-22T05:41:43.603Z,12.4
2019-05-22T05:42:50.808Z,12.4
2019-05-22T05:43:58.009Z,12.4
2019-05-22T05:45:05.216Z,12.4
2019-05-22T05:46:12.147Z,12.4
2019-05-22T05:47:19.358Z,12.4
2019-05-22T05:48:26.618Z,12.4
2019-05-22T05:49:33.823Z,12.4
2019-05-22T05:50:41.205Z,12.4
2019-05-22T05:51:48.410Z,12.5
2019-05-22T05:52:55.394Z,12.5
2019-05-22T05:54:03.685Z,12.5
2019-05-22T05:55:10.881Z,12.5
2019-05-22T05:56:17.901Z,12.5
2019-05-22T05:57:25.218Z,12.5
2019-05-22T05:58:32.438Z,12.5
2019-05-22T05:59:39.361Z,12.5
2019-05-22T06:00:46.567Z,12.5
2019-05-22T06:01:53.773Z,12.5
2019-05-22T06:03:00.721Z,12.5
2019-05-22T06:04:07.654Z,12.5
2019-05-22T06:05:14.576Z,12.5
2019-05-22T06:06:21.783Z,12.5
2019-05-22T06:07:28.714Z,12.6
2019-05-22T06:08:35.664Z,12.6
2019-05-22T06:09:42.962Z,12.6
2019-05-22T06:10:49.898Z,12.6
2019-05-22T06:11:57.151Z,12.6
2019-05-22T06:13:04.359Z,12.5
2019-05-22T06:14:11.591Z,12.6
2019-05-22T06:15:18.805Z,12.6
2019-05-22T06:16:26.017Z,12.6
2019-05-22T06:17:33.222Z,12.6
2019-05-22T06:18:40.442Z,12.7
2019-05-22T06:19:47.642Z,12.7
2019-05-22T06:21:04.852Z,12.8
2019-05-22T06:22:12.095Z,12.8
2019-05-22T06:23:19.034Z,12.8
2019-05-22T06:24:26.250Z,12.8
2019-05-22T06:25:33.484Z,12.8
2019-05-22T06:26:40.695Z,12.8
2019-05-22T06:27:47.904Z,12.9
2019-05-22T06:28:55.190Z,12.9
2019-05-22T06:30:02.444Z,12.9
2019-05-22T06:31:09.655Z,12.9
2019-05-22T06:32:16.604Z,12.9
2019-05-22T06:33:23.819Z,12.9
2019-05-22T06:34:31.033Z,12.9
2019-05-22T06:35:38.009Z,12.9
2019-05-22T06:36:45.219Z,12.9
2019-05-22T06:37:52.149Z,12.9
2019-05-22T06:38:59.356Z,12.9
2019-05-22T06:40:06.563Z,12.9
2019-05-22T06:41:13.838Z,12.9
2019-05-22T06:42:21.039Z,13
2019-05-22T06:43:28.268Z,13
2019-05-22T06:44:35.498Z,13
2019-05-22T06:45:42.708Z,13.1
2019-05-22T06:46:49.914Z,13
2019-05-22T06:47:56.882Z,13
2019-05-22T06:49:04.092Z,13.1
2019-05-22T06:50:11.022Z,13.2
2019-05-22T06:51:20.244Z,13.2
2019-05-22T06:52:27.458Z,13.2
2019-05-22T06:53:34.392Z,13.3
2019-05-22T06:54:41.333Z,13.2
2019-05-22T06:55:48.536Z,13.3
2019-05-22T06:56:55.747Z,13.3
2019-05-22T06:58:02.974Z,13.3
2019-05-22T06:59:10.184Z,13.3
2019-05-22T07:00:17.148Z,13.2
2019-05-22T07:01:24.357Z,13.2
2019-05-22T07:02:31.563Z,13.2
2019-05-22T07:03:38.769Z,13.2
2019-05-22T07:04:45.989Z,13.2
2019-05-22T07:05:52.933Z,13.2
2019-05-22T07:07:00.189Z,13.2
2019-05-22T07:08:07.452Z,13.2
2019-05-22T07:09:14.104Z,13.2
2019-05-22T07:10:21.408Z,13.3
2019-05-22T07:11:28.346Z,13.3
2019-05-22T07:12:35.565Z,13.2
2019-05-22T07:13:42.759Z,13.2
2019-05-22T07:14:49.967Z,13.2
2019-05-22T07:15:56.617Z,13.2
2019-05-22T07:17:03.554Z,13.2
2019-05-22T07:18:13.600Z,13.1
2019-05-22T07:19:20.925Z,13.1
2019-05-22T07:20:28.139Z,13.1
2019-05-22T07:21:35.080Z,13
2019-05-22T07:22:42.344Z,13
2019-05-22T07:23:49.575Z,13
2019-05-22T07:24:56.511Z,13
2019-05-22T07:26:03.725Z,13
2019-05-22T07:27:10.967Z,13
2019-05-22T07:28:18.336Z,13
2019-05-22T07:29:25.327Z,13
2019-05-22T07:30:32.534Z,13
2019-05-22T07:31:39.750Z,13.1
2019-05-22T07:32:46.956Z,13
2019-05-22T07:33:54.173Z,13
2019-05-22T07:35:01.101Z,13.1
2019-05-22T07:36:16.615Z,13.2
2019-05-22T07:37:24.046Z,13.2
2019-05-22T07:38:31.259Z,13.2
2019-05-22T07:39:38.471Z,13.3
2019-05-22T07:40:51.531Z,13.3
2019-05-22T07:41:58.904Z,13.2
2019-05-22T07:43:05.621Z,13.3
2019-05-22T07:44:12.837Z,13.3
2019-05-22T07:45:20.057Z,13.2
2019-05-22T07:46:31.252Z,13.3
2019-05-22T07:47:38.192Z,13.3
2019-05-22T07:48:45.390Z,13.3
2019-05-22T07:49:52.337Z,13.3
2019-05-22T07:50:59.748Z,13.3
2019-05-22T07:52:06.991Z,13.3
2019-05-22T07:53:14.207Z,13.4
2019-05-22T07:54:21.144Z,13.5
2019-05-22T07:55:28.081Z,13.5
2019-05-22T07:56:35.019Z,13.5
2019-05-22T07:57:42.228Z,13.6
2019-05-22T07:58:49.440Z,13.7
2019-05-22T07:59:56.643Z,13.7
2019-05-22T08:01:03.885Z,13.8
2019-05-22T08:02:11.313Z,13.8
2019-05-22T08:03:18.602Z,13.9
2019-05-22T08:04:25.928Z,13.9
2019-05-22T08:05:33.135Z,14
2019-05-22T08:06:40.348Z,14
2019-05-22T08:07:47.997Z,14.1
2019-05-22T08:08:55.399Z,14
2019-05-22T08:10:02.606Z,14.1
2019-05-22T08:11:09.916Z,14.1
2019-05-22T08:12:17.136Z,14.2
2019-05-22T08:13:24.067Z,14.3
2019-05-22T08:14:31.307Z,14.4
2019-05-22T08:15:38.539Z,14.4
2019-05-22T08:16:45.763Z,14.4
2019-05-22T08:17:52.710Z,14.4
2019-05-22T08:18:59.977Z,14.5
2019-05-22T08:20:07.169Z,14.5
2019-05-22T08:21:14.104Z,14.6
2019-05-22T08:22:21.366Z,14.6
2019-05-22T08:23:28.361Z,14.7
2019-05-22T08:24:35.566Z,14.7
2019-05-22T08:25:42.774Z,14.8
2019-05-22T08:26:55.260Z,14.8
2019-05-22T08:28:02.550Z,14.8
2019-05-22T08:29:09.486Z,14.7
2019-05-22T08:30:16.950Z,14.7
2019-05-22T08:31:24.164Z,14.7
2019-05-22T08:32:31.134Z,14.5
2019-05-22T08:33:38.349Z,14.5
2019-05-22T08:34:45.803Z,14.5
2019-05-22T08:35:53.011Z,14.5
2019-05-22T08:37:00.221Z,14.4
2019-05-22T08:38:07.637Z,14.4
2019-05-22T08:39:14.840Z,14.5
2019-05-22T08:40:22.046Z,14.5
2019-05-22T08:41:29.255Z,14.5
2019-05-22T08:42:36.472Z,14.5
2019-05-22T08:44:16.491Z,14.5
2019-05-22T08:45:24.787Z,14.5
2019-05-22T08:46:32.192Z,14.4
2019-05-22T08:47:39.411Z,14.5
2019-05-22T08:48:49.640Z,14.4
2019-05-22T08:49:56.941Z,14.4
2019-05-22T08:51:04.180Z,14.4
2019-05-22T08:52:24.277Z,14.4
2019-05-22T08:53:48.511Z,14.4
2019-05-22T08:54:55.919Z,14.5
2019-05-22T08:56:03.127Z,14.5
2019-05-22T08:57:10.331Z,14.5
2019-05-22T08:58:17.532Z,14.6
2019-05-22T08:59:24.738Z,14.5
2019-05-22T09:00:31.958Z,14.6
2019-05-22T09:01:39.178Z,14.6
2019-05-22T09:02:45.833Z,14.6
2019-05-22T09:03:52.781Z,14.6
2019-05-22T09:04:59.974Z,14.6
2019-05-22T09:06:06.909Z,14.7
2019-05-22T09:07:13.872Z,14.7
2019-05-22T09:08:21.084Z,14.7
2019-05-22T09:09:28.545Z,14.6
2019-05-22T09:10:35.752Z,14.6
2019-05-22T09:11:42.684Z,14.6
2019-05-22T09:12:49.899Z,14.6
2019-05-22T09:13:57.107Z,14.7
2019-05-22T09:15:04.031Z,14.7
2019-05-22T09:16:11.271Z,14.8
2019-05-22T09:17:18.642Z,14.8
2019-05-22T09:18:25.857Z,14.8
2019-05-22T09:19:33.081Z,14.9
2019-05-22T09:20:50.188Z,14.9
2019-05-22T09:21:57.395Z,14.8
2019-05-22T09:23:04.605Z,14.8
2019-05-22T09:24:11.817Z,14.8
2019-05-22T09:25:19.022Z,14.8
2019-05-22T09:26:26.243Z,14.8
2019-05-22T09:27:33.462Z,14.8
2019-05-22T09:28:40.672Z,14.8
2019-05-22T09:29:47.903Z,14.9
2019-05-22T09:30:55.118Z,14.8
2019-05-22T09:32:02.398Z,14.8
2019-05-22T09:33:09.924Z,14.8
2019-05-22T09:34:16.854Z,14.7
2019-05-22T09:35:23.978Z,14.7
2019-05-22T09:36:31.306Z,14.5
2019-05-22T09:37:38.514Z,14.5
2019-05-22T09:38:45.721Z,14.5
2019-05-22T09:39:52.924Z,14.4
2019-05-22T09:41:00.136Z,14.5
2019-05-22T09:42:07.342Z,14.5
2019-05-22T09:43:14.633Z,14.5
2019-05-22T09:44:21.561Z,14.4
2019-05-22T09:45:28.810Z,14.4
2019-05-22T09:46:36.046Z,14.4
2019-05-22T09:47:43.271Z,14.4
2019-05-22T09:48:50.480Z,14.4
2019-05-22T09:49:57.699Z,14.5
2019-05-22T09:51:04.921Z,14.5
2019-05-22T09:52:11.852Z,14.5
2019-05-22T09:53:19.059Z,14.5
2019-05-22T09:54:26.269Z,14.6
2019-05-22T09:55:33.473Z,14.6
2019-05-22T09:56:40.683Z,14.6
2019-05-22T09:57:47.894Z,14.6
2019-05-22T09:58:55.108Z,14.8
2019-05-22T10:00:02.681Z,14.8
2019-05-22T10:01:12.554Z,14.8
2019-05-22T10:02:19.767Z,14.9
2019-05-22T10:03:26.737Z,14.8
2019-05-22T10:04:33.944Z,14.8
2019-05-22T10:05:41.242Z,14.8
2019-05-22T10:06:48.479Z,14.8
2019-05-22T10:08:02.069Z,14.7
2019-05-22T10:09:09.301Z,14.7
2019-05-22T10:10:16.508Z,14.9
2019-05-22T10:11:23.447Z,14.8
2019-05-22T10:12:30.660Z,14.8
2019-05-22T10:13:38.220Z,14.8
2019-05-22T10:14:45.418Z,14.7
2019-05-22T10:15:52.925Z,14.8
2019-05-22T10:17:00.137Z,14.8
2019-05-22T10:18:07.077Z,15
2019-05-22T10:19:14.279Z,15.1
2019-05-22T10:20:21.488Z,15.1
2019-05-22T10:21:28.424Z,15.2
2019-05-22T10:22:35.631Z,15.2
2019-05-22T10:23:42.838Z,15.3
2019-05-22T10:24:52.002Z,15.4
2019-05-22T10:25:59.340Z,15.3
2019-05-22T10:27:06.269Z,15.1
2019-05-22T10:28:13.475Z,15.2
2019-05-22T10:29:20.687Z,15.2
2019-05-22T10:30:27.995Z,15.3
2019-05-22T10:31:35.208Z,15.4
2019-05-22T10:32:42.434Z,15.4
2019-05-22T10:33:52.611Z,15.3
2019-05-22T10:34:59.843Z,15.2
2019-05-22T10:36:07.196Z,15.1
2019-05-22T10:37:14.397Z,15.1
2019-05-22T10:38:21.602Z,15
2019-05-22T10:39:28.808Z,14.9
2019-05-22T10:40:36.028Z,15
2019-05-22T10:41:42.987Z,14.8
2019-05-22T10:42:50.195Z,14.7
2019-05-22T10:43:57.214Z,14.5
2019-05-22T10:45:04.422Z,14.5
2019-05-22T10:46:11.650Z,14.5
2019-05-22T10:47:19.603Z,14.6
2019-05-22T10:48:26.541Z,14.6
2019-05-22T10:49:33.744Z,14.6
2019-05-22T10:50:40.950Z,14.5
2019-05-22T10:51:48.167Z,14.5
2019-05-22T10:52:55.733Z,14.6
2019-05-22T10:54:02.942Z,14.5
2019-05-22T10:55:10.152Z,14.6
2019-05-22T10:56:17.371Z,14.6
2019-05-22T10:57:24.592Z,14.7
2019-05-22T10:58:31.799Z,14.7
2019-05-22T10:59:39.062Z,14.7
2019-05-22T11:00:46.000Z,14.7
2019-05-22T11:01:52.938Z,14.7
2019-05-22T11:03:00.149Z,14.7
2019-05-22T11:04:06.810Z,14.8
2019-05-22T11:05:14.020Z,14.8
2019-05-22T11:06:21.247Z,14.9
2019-05-22T11:07:28.171Z,14.9
2019-05-22T11:08:35.383Z,15
2019-05-22T11:09:42.593Z,14.8
2019-05-22T11:10:49.650Z,14.7
2019-05-22T11:11:56.908Z,14.6
2019-05-22T11:13:03.843Z,14.7
2019-05-22T11:14:11.050Z,14.8
2019-05-22T11:15:18.258Z,14.9
2019-05-22T11:16:24.920Z,15
2019-05-22T11:17:32.131Z,15.1
2019-05-22T11:18:39.391Z,15.2
2019-05-22T11:19:46.596Z,15.3
2019-05-22T11:20:53.847Z,15.3
2019-05-22T11:22:00.784Z,15.3
2019-05-22T11:23:07.884Z,15.3
2019-05-22T11:24:14.810Z,15.4
2019-05-22T11:25:22.019Z,15.5
2019-05-22T11:26:29.226Z,15.7
2019-05-22T22:00:06.628Z,8.6
2019-05-22T22:01:13.853Z,8.6
2019-05-22T22:02:21.097Z,8.6
2019-05-22T22:03:28.302Z,8.6
2019-05-22T22:04:35.503Z,8.5
2019-05-22T22:05:42.715Z,8.6
2019-05-22T22:06:49.648Z,8.5
2019-05-22T22:07:56.851Z,8.5
2019-05-22T22:09:04.054Z,8.5
2019-05-22T22:10:10.980Z,8.5
2019-05-22T22:11:18.182Z,8.4
2019-05-22T22:12:25.393Z,8.4
2019-05-22T22:13:32.595Z,8.4
2019-05-22T22:14:39.805Z,8.4
2019-05-22T22:15:47.012Z,8.4
2019-05-22T22:16:53.678Z,8.3
2019-05-22T22:18:00.878Z,8.3
2019-05-22T22:19:08.093Z,8.3
2019-05-22T22:20:15.294Z,8.3
2019-05-22T22:21:21.947Z,8.2
2019-05-22T22:22:29.151Z,8.2
2019-05-22T22:23:36.354Z,8.1
2019-05-22T22:24:43.555Z,8.1
2019-05-22T22:25:50.978Z,8.1
2019-05-22T22:26:58.344Z,8
2019-05-22T22:28:05.541Z,8
2019-05-22T22:29:12.754Z,8
2019-05-22T22:30:19.954Z,8
2019-05-22T22:31:27.152Z,8
2019-05-22T22:32:34.365Z,8
2019-05-22T22:33:41.564Z,8
2019-05-22T22:34:48.765Z,7.9
2019-05-22T22:35:55.979Z,7.9
2019-05-22T22:37:02.947Z,7.9
2019-05-22T22:38:09.877Z,7.9
2019-05-22T22:39:16.807Z,7.9
2019-05-22T22:40:24.016Z,7.9
2019-05-22T22:41:30.941Z,7.9
2019-05-22T22:42:38.166Z,7.9
2019-05-22T22:43:45.107Z,7.9
2019-05-22T22:44:51.754Z,7.8
2019-05-22T22:45:58.954Z,7.8
2019-05-22T22:47:05.887Z,7.8
2019-05-22T22:48:13.090Z,7.8
2019-05-22T22:49:20.303Z,7.8
2019-05-22T22:50:27.509Z,7.7
2019-05-22T22:51:34.716Z,7.7
2019-05-22T22:52:41.386Z,7.7
2019-05-22T22:53:48.583Z,7.6
2019-05-22T22:54:55.816Z,7.6
2019-05-22T22:56:03.021Z,7.6
2019-05-22T22:57:10.230Z,7.6
2019-05-22T22:58:18.380Z,7.6
2019-05-22T22:59:25.583Z,7.6
2019-05-22T23:00:32.783Z,7.6
2019-05-22T23:01:39.991Z,7.6
2019-05-22T23:02:46.977Z,7.6
2019-05-22T23:03:53.920Z,7.6
2019-05-22T23:05:00.869Z,7.6
2019-05-22T23:06:08.086Z,7.6
2019-05-22T23:07:15.290Z,7.5
2019-05-22T23:08:21.942Z,7.5
2019-05-22T23:09:29.149Z,7.5
2019-05-22T23:10:36.358Z,7.5
2019-05-22T23:11:43.563Z,7.5
2019-05-22T23:12:50.981Z,7.5
2019-05-22T23:13:58.188Z,7.4
2019-05-22T23:15:05.385Z,7.5
2019-05-22T23:16:12.630Z,7.5
2019-05-22T23:17:19.776Z,7.5
2019-05-22T23:18:27.017Z,7.5
2019-05-22T23:19:33.670Z,7.4
2019-05-22T23:20:40.611Z,7.4
2019-05-22T23:21:47.805Z,7.4
2019-05-22T23:22:54.797Z,7.4
2019-05-22T23:24:02.034Z,7.4
2019-05-22T23:25:08.965Z,7.4
2019-05-22T23:26:16.190Z,7.3
2019-05-22T23:27:23.404Z,7.3
2019-05-22T23:28:35.382Z,7.2
2019-05-22T23:29:42.313Z,7.2
2019-05-22T23:30:49.233Z,7.2
2019-05-22T23:31:55.891Z,7.2
2019-05-22T23:33:03.095Z,7.2
2019-05-22T23:34:10.324Z,7.1
2019-05-22T23:35:17.526Z,7.1
2019-05-22T23:36:24.186Z,7.1
2019-05-22T23:37:31.691Z,7.1
2019-05-22T23:38:39.002Z,7.1
2019-05-22T23:39:46.233Z,7.1
2019-05-22T23:40:53.436Z,7.1
2019-05-22T23:42:00.365Z,7.1
2019-05-22T23:43:07.587Z,7.1
2019-05-22T23:44:14.773Z,7.1
2019-05-22T23:45:21.927Z,7.1
2019-05-22T23:46:29.118Z,7
2019-05-22T23:47:36.324Z,7
2019-05-22T23:48:43.524Z,7
2019-05-22T23:49:50.763Z,7
2019-05-22T23:50:57.957Z,7
2019-05-22T23:52:05.179Z,6.9
2019-05-22T23:53:12.381Z,6.9
2019-05-22T23:54:19.577Z,6.9
2019-05-22T23:55:26.786Z,6.9
2019-05-22T23:56:34.021Z,6.9
2019-05-22T23:57:41.220Z,6.9
2019-05-22T23:58:53.640Z,6.9
